sensor_id;sensor_type;location;lat;lon;timestamp;P1;durP1;ratioP1;P2;durP2;ratioP2
52072;SDS011;38074;51.232;6.826;2022-07-18T00:05:31;0.40;;;0.10;;
52072;SDS011;38074;51.232;6.826;2022-07-18T00:12:48;0.47;;;0.20;;
52072;SDS011;38074;51.232;6.826;2022-07-18T00:20:07;0.50;;;0.20;;
52072;SDS011;38074;51.232;6.826;2022-07-18T00:27:24;0.70;;;0.28;;
52072;SDS011;38074;51.232;6.826;2022-07-18T00:34:40;0.40;;;0.20;;
52072;SDS011;38074;51.232;6.826;2022-07-18T00:41:55;0.53;;;0.20;;
52072;SDS011;38074;51.232;6.826;2022-07-18T00:49:11;0.50;;;0.20;;
52072;SDS011;38074;51.232;6.826;2022-07-18T00:56:26;0.38;;;0.20;;
52072;SDS011;38074;51.232;6.826;2022-07-18T01:03:42;0.57;;;0.30;;
52072;SDS011;38074;51.232;6.826;2022-07-18T01:10:57;0.50;;;0.20;;
52072;SDS011;38074;51.232;6.826;2022-07-18T01:18:13;0.50;;;0.20;;
52072;SDS011;38074;51.232;6.826;2022-07-18T01:25:29;0.60;;;0.15;;
52072;SDS011;38074;51.232;6.826;2022-07-18T01:32:45;0.30;;;0.13;;
52072;SDS011;38074;51.232;6.826;2022-07-18T01:40:00;0.87;;;0.20;;
52072;SDS011;38074;51.232;6.826;2022-07-18T01:47:16;0.15;;;0.10;;
52072;SDS011;38074;51.232;6.826;2022-07-18T01:54:32;0.98;;;0.20;;
52072;SDS011;38074;51.232;6.826;2022-07-18T02:09:05;0.25;;;0.10;;
52072;SDS011;38074;51.232;6.826;2022-07-18T02:23:37;0.43;;;0.20;;
52072;SDS011;38074;51.232;6.826;2022-07-18T02:30:53;0.40;;;0.15;;
52072;SDS011;38074;51.232;6.826;2022-07-18T02:38:08;0.50;;;0.20;;
52072;SDS011;38074;51.232;6.826;2022-07-18T02:45:24;0.57;;;0.20;;
52072;SDS011;38074;51.232;6.826;2022-07-18T02:52:40;0.63;;;0.30;;
52072;SDS011;38074;51.232;6.826;2022-07-18T02:59:56;0.30;;;0.20;;
52072;SDS011;38074;51.232;6.826;2022-07-18T03:07:12;0.20;;;0.15;;
52072;SDS011;38074;51.232;6.826;2022-07-18T03:14:28;0.30;;;0.20;;
52072;SDS011;38074;51.232;6.826;2022-07-18T03:21:44;0.30;;;0.10;;
52072;SDS011;38074;51.232;6.826;2022-07-18T03:29:00;0.20;;;0.10;;
52072;SDS011;38074;51.232;6.826;2022-07-18T03:36:15;0.40;;;0.20;;
52072;SDS011;38074;51.232;6.826;2022-07-18T03:43:31;0.57;;;0.20;;
52072;SDS011;38074;51.232;6.826;2022-07-18T03:50:46;0.30;;;0.20;;
52072;SDS011;38074;51.232;6.826;2022-07-18T03:58:02;0.40;;;0.20;;
52072;SDS011;38074;51.232;6.826;2022-07-18T04:05:17;0.40;;;0.23;;
52072;SDS011;38074;51.232;6.826;2022-07-18T04:12:33;0.57;;;0.20;;
52072;SDS011;38074;51.232;6.826;2022-07-18T04:19:49;0.70;;;0.30;;
52072;SDS011;38074;51.232;6.826;2022-07-18T04:27:06;0.25;;;0.17;;
52072;SDS011;38074;51.232;6.826;2022-07-18T04:34:21;0.40;;;0.17;;
52072;SDS011;38074;51.232;6.826;2022-07-18T04:41:37;0.20;;;0.10;;
52072;SDS011;38074;51.232;6.826;2022-07-18T04:48:54;0.22;;;0.10;;
52072;SDS011;38074;51.232;6.826;2022-07-18T04:56:09;0.60;;;0.20;;
52072;SDS011;38074;51.232;6.826;2022-07-18T05:03:25;0.60;;;0.20;;
52072;SDS011;38074;51.232;6.826;2022-07-18T05:10:40;0.32;;;0.20;;
52072;SDS011;38074;51.232;6.826;2022-07-18T05:17:56;0.30;;;0.17;;
52072;SDS011;38074;51.232;6.826;2022-07-18T05:25:12;0.97;;;0.20;;
52072;SDS011;38074;51.232;6.826;2022-07-18T05:32:28;0.50;;;0.20;;
52072;SDS011;38074;51.232;6.826;2022-07-18T05:39:44;0.20;;;0.10;;
52072;SDS011;38074;51.232;6.826;2022-07-18T05:47:00;0.40;;;0.20;;
52072;SDS011;38074;51.232;6.826;2022-07-18T05:54:15;0.80;;;0.20;;
52072;SDS011;38074;51.232;6.826;2022-07-18T06:01:34;0.45;;;0.20;;
52072;SDS011;38074;51.232;6.826;2022-07-18T06:08:49;0.70;;;0.17;;
52072;SDS011;38074;51.232;6.826;2022-07-18T06:16:05;0.30;;;0.10;;
52072;SDS011;38074;51.232;6.826;2022-07-18T06:23:21;0.20;;;0.10;;
52072;SDS011;38074;51.232;6.826;2022-07-18T06:30:37;0.43;;;0.20;;
52072;SDS011;38074;51.232;6.826;2022-07-18T06:37:52;0.50;;;0.20;;
52072;SDS011;38074;51.232;6.826;2022-07-18T06:45:08;0.63;;;0.10;;
52072;SDS011;38074;51.232;6.826;2022-07-18T06:52:24;0.57;;;0.20;;
52072;SDS011;38074;51.232;6.826;2022-07-18T06:59:39;0.23;;;0.13;;
52072;SDS011;38074;51.232;6.826;2022-07-18T07:06:55;0.30;;;0.20;;
52072;SDS011;38074;51.232;6.826;2022-07-18T07:14:11;0.20;;;0.13;;
52072;SDS011;38074;51.232;6.826;2022-07-18T07:21:26;0.40;;;0.10;;
52072;SDS011;38074;51.232;6.826;2022-07-18T07:28:42;0.22;;;0.10;;
52072;SDS011;38074;51.232;6.826;2022-07-18T07:35:57;0.45;;;0.20;;
52072;SDS011;38074;51.232;6.826;2022-07-18T07:43:14;0.20;;;0.10;;
52072;SDS011;38074;51.232;6.826;2022-07-18T07:50:31;0.20;;;0.10;;
52072;SDS011;38074;51.232;6.826;2022-07-18T07:57:47;0.10;;;0.10;;
52072;SDS011;38074;51.232;6.826;2022-07-18T08:05:03;0.10;;;0.10;;
52072;SDS011;38074;51.232;6.826;2022-07-18T08:12:19;0.47;;;0.20;;
52072;SDS011;38074;51.232;6.826;2022-07-18T08:19:34;0.30;;;0.15;;
52072;SDS011;38074;51.232;6.826;2022-07-18T08:26:50;0.30;;;0.20;;
52072;SDS011;38074;51.232;6.826;2022-07-18T08:34:05;0.43;;;0.20;;
52072;SDS011;38074;51.232;6.826;2022-07-18T08:41:24;0.30;;;0.20;;
52072;SDS011;38074;51.232;6.826;2022-07-18T08:48:42;0.30;;;0.10;;
52072;SDS011;38074;51.232;6.826;2022-07-18T08:55:57;0.32;;;0.20;;
52072;SDS011;38074;51.232;6.826;2022-07-18T09:03:13;0.27;;;0.20;;
52072;SDS011;38074;51.232;6.826;2022-07-18T09:10:31;0.30;;;0.10;;
52072;SDS011;38074;51.232;6.826;2022-07-18T09:18:05;0.15;;;0.10;;
52072;SDS011;38074;51.232;6.826;2022-07-18T09:25:21;0.60;;;0.10;;
52072;SDS011;38074;51.232;6.826;2022-07-18T09:32:39;0.73;;;0.30;;
52072;SDS011;38074;51.232;6.826;2022-07-18T09:47:51;0.10;;;0.10;;
52072;SDS011;38074;51.232;6.826;2022-07-18T09:55:08;0.45;;;0.10;;
52072;SDS011;38074;51.232;6.826;2022-07-18T10:02:24;0.20;;;0.20;;
52072;SDS011;38074;51.232;6.826;2022-07-18T10:09:39;0.45;;;0.20;;
52072;SDS011;38074;51.232;6.826;2022-07-18T10:16:56;0.33;;;0.10;;
52072;SDS011;38074;51.232;6.826;2022-07-18T10:24:11;0.25;;;0.20;;
52072;SDS011;38074;51.232;6.826;2022-07-18T10:31:33;0.25;;;0.13;;
52072;SDS011;38074;51.232;6.826;2022-07-18T10:46:24;0.30;;;0.20;;
52072;SDS011;38074;51.232;6.826;2022-07-18T10:53:55;0.25;;;0.10;;
52072;SDS011;38074;51.232;6.826;2022-07-18T11:01:18;0.60;;;0.20;;
52072;SDS011;38074;51.232;6.826;2022-07-18T11:08:35;0.70;;;0.30;;
52072;SDS011;38074;51.232;6.826;2022-07-18T11:15:54;0.20;;;0.10;;
52072;SDS011;38074;51.232;6.826;2022-07-18T11:23:15;0.32;;;0.20;;
52072;SDS011;38074;51.232;6.826;2022-07-18T11:30:33;0.13;;;0.10;;
52072;SDS011;38074;51.232;6.826;2022-07-18T11:37:49;0.77;;;0.17;;
52072;SDS011;38074;51.232;6.826;2022-07-18T11:45:06;0.30;;;0.13;;
52072;SDS011;38074;51.232;6.826;2022-07-18T11:52:24;0.20;;;0.10;;
52072;SDS011;38074;51.232;6.826;2022-07-18T11:59:40;0.30;;;0.20;;
52072;SDS011;38074;51.232;6.826;2022-07-18T12:07:12;0.40;;;0.20;;
52072;SDS011;38074;51.232;6.826;2022-07-18T12:14:33;0.50;;;0.20;;
52072;SDS011;38074;51.232;6.826;2022-07-18T12:21:50;0.17;;;0.13;;
52072;SDS011;38074;51.232;6.826;2022-07-18T12:29:12;0.40;;;0.20;;
52072;SDS011;38074;51.232;6.826;2022-07-18T12:36:28;0.40;;;0.20;;
52072;SDS011;38074;51.232;6.826;2022-07-18T12:43:43;0.38;;;0.20;;
52072;SDS011;38074;51.232;6.826;2022-07-18T12:51:00;0.60;;;0.20;;
52072;SDS011;38074;51.232;6.826;2022-07-18T12:58:17;0.63;;;0.20;;
52072;SDS011;38074;51.232;6.826;2022-07-18T13:05:33;0.50;;;0.20;;
52072;SDS011;38074;51.232;6.826;2022-07-18T13:12:48;0.40;;;0.10;;
52072;SDS011;38074;51.232;6.826;2022-07-18T13:20:04;0.20;;;0.10;;
52072;SDS011;38074;51.232;6.826;2022-07-18T13:27:20;0.22;;;0.20;;
52072;SDS011;38074;51.232;6.826;2022-07-18T13:34:38;0.25;;;0.10;;
52072;SDS011;38074;51.232;6.826;2022-07-18T13:41:53;0.27;;;0.20;;
52072;SDS011;38074;51.232;6.826;2022-07-18T13:49:10;0.40;;;0.20;;
52072;SDS011;38074;51.232;6.826;2022-07-18T13:56:25;0.30;;;0.20;;
52072;SDS011;38074;51.232;6.826;2022-07-18T14:03:41;0.43;;;0.10;;
52072;SDS011;38074;51.232;6.826;2022-07-18T14:10:56;0.30;;;0.10;;
52072;SDS011;38074;51.232;6.826;2022-07-18T14:18:12;0.28;;;0.20;;
52072;SDS011;38074;51.232;6.826;2022-07-18T14:25:27;0.50;;;0.20;;
52072;SDS011;38074;51.232;6.826;2022-07-18T14:32:43;0.43;;;0.20;;
52072;SDS011;38074;51.232;6.826;2022-07-18T14:39:59;1.03;;;0.33;;
52072;SDS011;38074;51.232;6.826;2022-07-18T14:47:14;0.40;;;0.20;;
52072;SDS011;38074;51.232;6.826;2022-07-18T14:54:30;0.37;;;0.20;;
52072;SDS011;38074;51.232;6.826;2022-07-18T15:01:45;0.40;;;0.20;;
52072;SDS011;38074;51.232;6.826;2022-07-18T15:09:01;0.32;;;0.20;;
52072;SDS011;38074;51.232;6.826;2022-07-18T15:16:16;0.63;;;0.50;;
52072;SDS011;38074;51.232;6.826;2022-07-18T15:23:32;0.37;;;0.30;;
52072;SDS011;38074;51.232;6.826;2022-07-18T15:30:48;0.38;;;0.20;;
52072;SDS011;38074;51.232;6.826;2022-07-18T15:38:04;0.43;;;0.20;;
52072;SDS011;38074;51.232;6.826;2022-07-18T15:45:20;0.57;;;0.20;;
52072;SDS011;38074;51.232;6.826;2022-07-18T15:52:36;0.57;;;0.30;;
52072;SDS011;38074;51.232;6.826;2022-07-18T15:59:52;0.40;;;0.20;;
52072;SDS011;38074;51.232;6.826;2022-07-18T16:07:08;0.73;;;0.27;;
52072;SDS011;38074;51.232;6.826;2022-07-18T16:14:23;0.30;;;0.30;;
52072;SDS011;38074;51.232;6.826;2022-07-18T16:21:39;0.45;;;0.30;;
52072;SDS011;38074;51.232;6.826;2022-07-18T16:28:54;0.20;;;0.20;;
52072;SDS011;38074;51.232;6.826;2022-07-18T16:36:10;0.50;;;0.30;;
52072;SDS011;38074;51.232;6.826;2022-07-18T16:43:25;0.57;;;0.20;;
52072;SDS011;38074;51.232;6.826;2022-07-18T16:50:42;0.30;;;0.20;;
52072;SDS011;38074;51.232;6.826;2022-07-18T17:05:14;0.50;;;0.20;;
52072;SDS011;38074;51.232;6.826;2022-07-18T17:12:30;0.20;;;0.17;;
52072;SDS011;38074;51.232;6.826;2022-07-18T17:19:48;0.50;;;0.30;;
52072;SDS011;38074;51.232;6.826;2022-07-18T17:27:04;0.30;;;0.20;;
52072;SDS011;38074;51.232;6.826;2022-07-18T17:34:20;0.40;;;0.25;;
52072;SDS011;38074;51.232;6.826;2022-07-18T17:41:36;0.73;;;0.30;;
52072;SDS011;38074;51.232;6.826;2022-07-18T17:48:53;0.30;;;0.25;;
52072;SDS011;38074;51.232;6.826;2022-07-18T17:56:08;0.33;;;0.20;;
52072;SDS011;38074;51.232;6.826;2022-07-18T18:03:28;0.40;;;0.20;;
52072;SDS011;38074;51.232;6.826;2022-07-18T18:10:43;1.10;;;0.30;;
52072;SDS011;38074;51.232;6.826;2022-07-18T18:17:59;0.55;;;0.40;;
52072;SDS011;38074;51.232;6.826;2022-07-18T18:25:14;0.70;;;0.43;;
52072;SDS011;38074;51.232;6.826;2022-07-18T18:32:30;0.80;;;0.43;;
52072;SDS011;38074;51.232;6.826;2022-07-18T18:39:45;0.63;;;0.30;;
52072;SDS011;38074;51.232;6.826;2022-07-18T18:47:01;0.40;;;0.30;;
52072;SDS011;38074;51.232;6.826;2022-07-18T18:54:17;0.40;;;0.30;;
52072;SDS011;38074;51.232;6.826;2022-07-18T19:01:33;0.73;;;0.50;;
52072;SDS011;38074;51.232;6.826;2022-07-18T19:08:48;0.52;;;0.35;;
52072;SDS011;38074;51.232;6.826;2022-07-18T19:16:06;0.50;;;0.30;;
52072;SDS011;38074;51.232;6.826;2022-07-18T19:23:22;0.63;;;0.40;;
52072;SDS011;38074;51.232;6.826;2022-07-18T19:30:37;0.40;;;0.30;;
52072;SDS011;38074;51.232;6.826;2022-07-18T19:37:54;0.40;;;0.20;;
52072;SDS011;38074;51.232;6.826;2022-07-18T19:45:10;1.27;;;0.30;;
52072;SDS011;38074;51.232;6.826;2022-07-18T19:52:26;1.27;;;0.50;;
52072;SDS011;38074;51.232;6.826;2022-07-18T19:59:42;0.80;;;0.47;;
52072;SDS011;38074;51.232;6.826;2022-07-18T20:06:57;1.13;;;0.40;;
52072;SDS011;38074;51.232;6.826;2022-07-18T20:14:13;0.93;;;0.40;;
52072;SDS011;38074;51.232;6.826;2022-07-18T20:21:28;0.50;;;0.40;;
52072;SDS011;38074;51.232;6.826;2022-07-18T20:28:44;0.82;;;0.30;;
52072;SDS011;38074;51.232;6.826;2022-07-18T20:36:00;0.73;;;0.43;;
52072;SDS011;38074;51.232;6.826;2022-07-18T20:43:16;0.37;;;0.30;;
52072;SDS011;38074;51.232;6.826;2022-07-18T20:50:31;0.50;;;0.37;;
52072;SDS011;38074;51.232;6.826;2022-07-18T20:57:47;0.90;;;0.40;;
52072;SDS011;38074;51.232;6.826;2022-07-18T21:05:05;1.02;;;0.40;;
52072;SDS011;38074;51.232;6.826;2022-07-18T21:12:20;0.80;;;0.57;;
52072;SDS011;38074;51.232;6.826;2022-07-18T21:19:36;0.93;;;0.40;;
52072;SDS011;38074;51.232;6.826;2022-07-18T21:26:51;0.70;;;0.40;;
52072;SDS011;38074;51.232;6.826;2022-07-18T21:34:07;0.63;;;0.30;;
52072;SDS011;38074;51.232;6.826;2022-07-18T21:41:23;0.50;;;0.30;;
52072;SDS011;38074;51.232;6.826;2022-07-18T21:48:39;0.70;;;0.40;;
52072;SDS011;38074;51.232;6.826;2022-07-18T21:55:54;0.83;;;0.30;;
52072;SDS011;38074;51.232;6.826;2022-07-18T22:03:10;0.80;;;0.40;;
52072;SDS011;38074;51.232;6.826;2022-07-18T22:10:27;0.80;;;0.40;;
52072;SDS011;38074;51.232;6.826;2022-07-18T22:17:42;0.67;;;0.40;;
52072;SDS011;38074;51.232;6.826;2022-07-18T22:24:58;1.00;;;0.40;;
52072;SDS011;38074;51.232;6.826;2022-07-18T22:32:14;0.63;;;0.40;;
52072;SDS011;38074;51.232;6.826;2022-07-18T22:39:30;0.50;;;0.33;;
52072;SDS011;38074;51.232;6.826;2022-07-18T22:46:45;0.97;;;0.40;;
52072;SDS011;38074;51.232;6.826;2022-07-18T22:54:01;1.20;;;0.57;;
52072;SDS011;38074;51.232;6.826;2022-07-18T23:01:17;0.68;;;0.32;;
52072;SDS011;38074;51.232;6.826;2022-07-18T23:08:32;1.00;;;0.57;;
52072;SDS011;38074;51.232;6.826;2022-07-18T23:15:48;1.13;;;0.50;;
52072;SDS011;38074;51.232;6.826;2022-07-18T23:23:03;0.70;;;0.40;;
52072;SDS011;38074;51.232;6.826;2022-07-18T23:30:19;1.23;;;0.60;;
52072;SDS011;38074;51.232;6.826;2022-07-18T23:37:36;0.90;;;0.50;;
52072;SDS011;38074;51.232;6.826;2022-07-18T23:44:52;0.85;;;0.50;;
52072;SDS011;38074;51.232;6.826;2022-07-18T23:52:08;1.15;;;0.50;;
52072;SDS011;38074;51.232;6.826;2022-07-18T23:59:28;0.60;;;0.40;;
